Terminal Aerodrome Forecast
Issued by NWS

Home | Current Version | Previous Version | Text Only | Print | Product List | Glossary Off
Versions: 1 2 3 4 5 6 7 8 9 10 11 12 13 14 15 16

000
FTUS43 KMPX 171500 AAA
TAFRNH
TAF AMD
KRNH 171503Z 1715/1812 33004KT P6SM -SHSN SCT020
      TEMPO 1715/1716 3SM -SN OVC017
     FM180000 VRB02KT P6SM BKN100=

USA.gov is the U.S. government's official web portal to all federal, state and local government web resources and services.